sensor_id;sensor_type;location;lat;lon;timestamp;P1;durP1;ratioP1;P2;durP2;ratioP2
52878;SDS011;38747;53.140;6.498;2023-01-24T00:02:02;16.83;;;8.33;;
52878;SDS011;38747;53.140;6.498;2023-01-24T00:04:28;17.52;;;8.20;;
52878;SDS011;38747;53.140;6.498;2023-01-24T00:06:53;16.63;;;8.00;;
52878;SDS011;38747;53.140;6.498;2023-01-24T00:09:19;17.03;;;8.40;;
52878;SDS011;38747;53.140;6.498;2023-01-24T00:11:44;19.45;;;9.32;;
52878;SDS011;38747;53.140;6.498;2023-01-24T00:14:10;18.23;;;8.60;;
52878;SDS011;38747;53.140;6.498;2023-01-24T00:16:36;18.27;;;9.23;;
52878;SDS011;38747;53.140;6.498;2023-01-24T00:19:01;18.40;;;8.90;;
52878;SDS011;38747;53.140;6.498;2023-01-24T00:21:27;17.37;;;8.73;;
52878;SDS011;38747;53.140;6.498;2023-01-24T00:23:53;17.60;;;8.18;;
52878;SDS011;38747;53.140;6.498;2023-01-24T00:26:20;18.52;;;8.65;;
52878;SDS011;38747;53.140;6.498;2023-01-24T00:28:47;19.50;;;8.83;;
52878;SDS011;38747;53.140;6.498;2023-01-24T00:31:14;17.95;;;8.95;;
52878;SDS011;38747;53.140;6.498;2023-01-24T00:33:40;19.83;;;9.15;;
52878;SDS011;38747;53.140;6.498;2023-01-24T00:36:06;19.43;;;8.90;;
52878;SDS011;38747;53.140;6.498;2023-01-24T00:38:32;18.40;;;8.93;;
52878;SDS011;38747;53.140;6.498;2023-01-24T00:40:57;18.33;;;9.18;;
52878;SDS011;38747;53.140;6.498;2023-01-24T00:43:23;19.80;;;9.57;;
52878;SDS011;38747;53.140;6.498;2023-01-24T00:45:51;17.67;;;8.88;;
52878;SDS011;38747;53.140;6.498;2023-01-24T00:48:17;18.20;;;8.30;;
52878;SDS011;38747;53.140;6.498;2023-01-24T00:50:42;19.47;;;9.60;;
52878;SDS011;38747;53.140;6.498;2023-01-24T00:53:08;19.70;;;9.90;;
52878;SDS011;38747;53.140;6.498;2023-01-24T00:55:34;18.33;;;9.20;;
52878;SDS011;38747;53.140;6.498;2023-01-24T00:58:04;20.50;;;9.18;;
52878;SDS011;38747;53.140;6.498;2023-01-24T01:00:30;20.92;;;9.82;;
52878;SDS011;38747;53.140;6.498;2023-01-24T01:02:56;20.00;;;9.90;;
52878;SDS011;38747;53.140;6.498;2023-01-24T01:05:22;17.48;;;9.15;;
52878;SDS011;38747;53.140;6.498;2023-01-24T01:07:47;19.97;;;10.03;;
52878;SDS011;38747;53.140;6.498;2023-01-24T01:10:13;19.53;;;9.93;;
52878;SDS011;38747;53.140;6.498;2023-01-24T01:12:38;20.48;;;9.65;;
52878;SDS011;38747;53.140;6.498;2023-01-24T01:15:04;18.53;;;9.43;;
52878;SDS011;38747;53.140;6.498;2023-01-24T01:17:30;18.92;;;9.93;;
52878;SDS011;38747;53.140;6.498;2023-01-24T01:19:55;22.50;;;9.97;;
52878;SDS011;38747;53.140;6.498;2023-01-24T01:22:23;21.10;;;9.82;;
52878;SDS011;38747;53.140;6.498;2023-01-24T01:24:49;22.40;;;10.52;;
52878;SDS011;38747;53.140;6.498;2023-01-24T01:27:15;21.00;;;9.87;;
52878;SDS011;38747;53.140;6.498;2023-01-24T01:29:40;21.58;;;10.13;;
52878;SDS011;38747;53.140;6.498;2023-01-24T01:32:06;23.60;;;10.53;;
52878;SDS011;38747;53.140;6.498;2023-01-24T01:34:32;20.45;;;10.18;;
52878;SDS011;38747;53.140;6.498;2023-01-24T01:36:57;20.93;;;9.30;;
52878;SDS011;38747;53.140;6.498;2023-01-24T01:39:23;22.80;;;11.17;;
52878;SDS011;38747;53.140;6.498;2023-01-24T01:41:49;22.73;;;10.43;;
52878;SDS011;38747;53.140;6.498;2023-01-24T01:44:24;20.00;;;10.20;;
52878;SDS011;38747;53.140;6.498;2023-01-24T01:50:01;22.02;;;10.20;;
52878;SDS011;38747;53.140;6.498;2023-01-24T01:52:31;22.33;;;10.55;;
52878;SDS011;38747;53.140;6.498;2023-01-24T01:55:02;21.95;;;10.30;;
52878;SDS011;38747;53.140;6.498;2023-01-24T01:57:33;20.80;;;9.73;;
52878;SDS011;38747;53.140;6.498;2023-01-24T02:00:03;23.35;;;11.00;;
52878;SDS011;38747;53.140;6.498;2023-01-24T02:02:32;23.40;;;10.70;;
52878;SDS011;38747;53.140;6.498;2023-01-24T02:04:59;25.13;;;11.38;;
52878;SDS011;38747;53.140;6.498;2023-01-24T02:07:29;22.77;;;10.73;;
52878;SDS011;38747;53.140;6.498;2023-01-24T02:09:56;22.70;;;10.53;;
52878;SDS011;38747;53.140;6.498;2023-01-24T02:12:24;22.83;;;11.15;;
52878;SDS011;38747;53.140;6.498;2023-01-24T02:14:53;22.50;;;10.30;;
52878;SDS011;38747;53.140;6.498;2023-01-24T02:17:40;24.33;;;10.88;;
52878;SDS011;38747;53.140;6.498;2023-01-24T02:28:04;23.65;;;11.52;;
52878;SDS011;38747;53.140;6.498;2023-01-24T02:30:31;25.83;;;11.20;;
52878;SDS011;38747;53.140;6.498;2023-01-24T02:32:57;23.27;;;10.57;;
52878;SDS011;38747;53.140;6.498;2023-01-24T02:37:50;22.98;;;10.98;;
52878;SDS011;38747;53.140;6.498;2023-01-24T02:40:16;22.63;;;10.88;;
52878;SDS011;38747;53.140;6.498;2023-01-24T02:42:42;24.80;;;11.73;;
52878;SDS011;38747;53.140;6.498;2023-01-24T02:45:16;25.33;;;11.35;;
52878;SDS011;38747;53.140;6.498;2023-01-24T02:47:49;21.42;;;10.13;;
52878;SDS011;38747;53.140;6.498;2023-01-24T02:50:17;23.70;;;10.60;;
52878;SDS011;38747;53.140;6.498;2023-01-24T02:52:44;22.88;;;10.98;;
52878;SDS011;38747;53.140;6.498;2023-01-24T02:55:45;24.25;;;10.45;;
52878;SDS011;38747;53.140;6.498;2023-01-24T02:58:29;24.52;;;11.32;;
52878;SDS011;38747;53.140;6.498;2023-01-24T03:00:55;22.67;;;10.90;;
52878;SDS011;38747;53.140;6.498;2023-01-24T03:03:20;22.90;;;10.97;;
52878;SDS011;38747;53.140;6.498;2023-01-24T03:05:46;23.83;;;11.27;;
52878;SDS011;38747;53.140;6.498;2023-01-24T03:08:25;21.88;;;11.40;;
52878;SDS011;38747;53.140;6.498;2023-01-24T03:10:52;24.25;;;11.35;;
52878;SDS011;38747;53.140;6.498;2023-01-24T03:13:18;25.27;;;11.60;;
52878;SDS011;38747;53.140;6.498;2023-01-24T03:16:03;25.42;;;11.32;;
52878;SDS011;38747;53.140;6.498;2023-01-24T03:18:49;22.52;;;11.68;;
52878;SDS011;38747;53.140;6.498;2023-01-24T03:21:33;21.02;;;10.43;;
52878;SDS011;38747;53.140;6.498;2023-01-24T03:24:17;20.70;;;10.30;;
52878;SDS011;38747;53.140;6.498;2023-01-24T03:27:02;22.37;;;10.70;;
52878;SDS011;38747;53.140;6.498;2023-01-24T03:29:46;22.70;;;10.43;;
52878;SDS011;38747;53.140;6.498;2023-01-24T03:32:30;24.52;;;10.60;;
52878;SDS011;38747;53.140;6.498;2023-01-24T03:35:14;22.88;;;10.82;;
52878;SDS011;38747;53.140;6.498;2023-01-24T03:37:40;22.57;;;10.50;;
52878;SDS011;38747;53.140;6.498;2023-01-24T03:40:24;22.33;;;10.55;;
52878;SDS011;38747;53.140;6.498;2023-01-24T03:42:50;21.60;;;10.50;;
52878;SDS011;38747;53.140;6.498;2023-01-24T03:45:34;21.87;;;10.37;;
52878;SDS011;38747;53.140;6.498;2023-01-24T03:48:03;23.90;;;10.98;;
52878;SDS011;38747;53.140;6.498;2023-01-24T03:50:35;22.20;;;10.48;;
52878;SDS011;38747;53.140;6.498;2023-01-24T03:53:22;21.57;;;9.90;;
52878;SDS011;38747;53.140;6.498;2023-01-24T03:55:52;23.55;;;9.77;;
52878;SDS011;38747;53.140;6.498;2023-01-24T03:58:19;20.95;;;10.40;;
52878;SDS011;38747;53.140;6.498;2023-01-24T04:00:45;19.35;;;9.30;;
52878;SDS011;38747;53.140;6.498;2023-01-24T04:03:11;20.70;;;10.27;;
52878;SDS011;38747;53.140;6.498;2023-01-24T04:05:37;21.00;;;10.00;;
52878;SDS011;38747;53.140;6.498;2023-01-24T04:08:03;20.57;;;9.93;;
52878;SDS011;38747;53.140;6.498;2023-01-24T04:10:29;18.60;;;8.90;;
52878;SDS011;38747;53.140;6.498;2023-01-24T04:12:55;20.80;;;9.68;;
52878;SDS011;38747;53.140;6.498;2023-01-24T04:15:22;19.93;;;10.13;;
52878;SDS011;38747;53.140;6.498;2023-01-24T04:17:49;18.20;;;8.77;;
52878;SDS011;38747;53.140;6.498;2023-01-24T04:20:16;19.40;;;9.43;;
52878;SDS011;38747;53.140;6.498;2023-01-24T04:22:42;17.38;;;9.00;;
52878;SDS011;38747;53.140;6.498;2023-01-24T04:25:08;17.53;;;8.97;;
52878;SDS011;38747;53.140;6.498;2023-01-24T04:27:35;16.33;;;8.15;;
52878;SDS011;38747;53.140;6.498;2023-01-24T04:30:02;16.23;;;8.40;;
52878;SDS011;38747;53.140;6.498;2023-01-24T04:32:29;16.50;;;8.00;;
52878;SDS011;38747;53.140;6.498;2023-01-24T04:34:54;18.05;;;8.98;;
52878;SDS011;38747;53.140;6.498;2023-01-24T04:37:20;16.90;;;8.27;;
52878;SDS011;38747;53.140;6.498;2023-01-24T04:39:45;17.25;;;8.40;;
52878;SDS011;38747;53.140;6.498;2023-01-24T04:42:11;17.73;;;8.67;;
52878;SDS011;38747;53.140;6.498;2023-01-24T04:44:37;18.73;;;8.97;;
52878;SDS011;38747;53.140;6.498;2023-01-24T04:47:02;16.25;;;8.40;;
52878;SDS011;38747;53.140;6.498;2023-01-24T04:49:28;19.00;;;9.10;;
52878;SDS011;38747;53.140;6.498;2023-01-24T04:51:53;18.90;;;9.32;;
52878;SDS011;38747;53.140;6.498;2023-01-24T04:54:19;19.60;;;9.23;;
52878;SDS011;38747;53.140;6.498;2023-01-24T04:56:45;18.17;;;9.68;;
52878;SDS011;38747;53.140;6.498;2023-01-24T04:59:11;19.03;;;9.30;;
52878;SDS011;38747;53.140;6.498;2023-01-24T05:01:37;19.85;;;9.85;;
52878;SDS011;38747;53.140;6.498;2023-01-24T05:04:03;17.27;;;9.18;;
52878;SDS011;38747;53.140;6.498;2023-01-24T05:06:30;19.80;;;9.60;;
52878;SDS011;38747;53.140;6.498;2023-01-24T05:08:56;20.17;;;9.50;;
52878;SDS011;38747;53.140;6.498;2023-01-24T05:11:23;19.27;;;9.77;;
52878;SDS011;38747;53.140;6.498;2023-01-24T05:13:49;19.25;;;9.02;;
52878;SDS011;38747;53.140;6.498;2023-01-24T05:16:15;19.50;;;10.02;;
52878;SDS011;38747;53.140;6.498;2023-01-24T05:18:41;20.13;;;10.63;;
52878;SDS011;38747;53.140;6.498;2023-01-24T05:21:08;19.58;;;10.02;;
52878;SDS011;38747;53.140;6.498;2023-01-24T05:23:38;20.75;;;10.23;;
52878;SDS011;38747;53.140;6.498;2023-01-24T05:26:05;19.90;;;9.93;;
52878;SDS011;38747;53.140;6.498;2023-01-24T05:28:31;20.40;;;10.52;;
52878;SDS011;38747;53.140;6.498;2023-01-24T05:31:00;21.07;;;9.90;;
52878;SDS011;38747;53.140;6.498;2023-01-24T05:33:26;22.35;;;10.50;;
52878;SDS011;38747;53.140;6.498;2023-01-24T05:35:59;20.67;;;10.45;;
52878;SDS011;38747;53.140;6.498;2023-01-24T05:38:26;20.92;;;10.35;;
52878;SDS011;38747;53.140;6.498;2023-01-24T05:40:52;21.63;;;10.20;;
52878;SDS011;38747;53.140;6.498;2023-01-24T05:43:17;21.87;;;10.97;;
52878;SDS011;38747;53.140;6.498;2023-01-24T05:45:43;20.92;;;10.85;;
52878;SDS011;38747;53.140;6.498;2023-01-24T05:48:08;19.60;;;10.60;;
52878;SDS011;38747;53.140;6.498;2023-01-24T05:50:35;20.17;;;10.57;;
52878;SDS011;38747;53.140;6.498;2023-01-24T05:53:04;20.25;;;10.40;;
52878;SDS011;38747;53.140;6.498;2023-01-24T05:55:30;21.55;;;10.55;;
52878;SDS011;38747;53.140;6.498;2023-01-24T05:57:57;19.17;;;10.37;;
52878;SDS011;38747;53.140;6.498;2023-01-24T06:00:24;25.52;;;11.48;;
52878;SDS011;38747;53.140;6.498;2023-01-24T06:02:50;22.03;;;11.00;;
52878;SDS011;38747;53.140;6.498;2023-01-24T06:05:16;24.58;;;12.10;;
52878;SDS011;38747;53.140;6.498;2023-01-24T06:07:41;24.75;;;11.60;;
52878;SDS011;38747;53.140;6.498;2023-01-24T06:10:07;21.43;;;11.47;;
52878;SDS011;38747;53.140;6.498;2023-01-24T06:12:33;22.83;;;11.20;;
52878;SDS011;38747;53.140;6.498;2023-01-24T06:14:59;20.53;;;10.30;;
52878;SDS011;38747;53.140;6.498;2023-01-24T06:17:24;20.23;;;10.32;;
52878;SDS011;38747;53.140;6.498;2023-01-24T06:19:50;20.87;;;10.53;;
52878;SDS011;38747;53.140;6.498;2023-01-24T06:24:47;19.95;;;11.15;;
52878;SDS011;38747;53.140;6.498;2023-01-24T06:27:13;23.97;;;11.67;;
52878;SDS011;38747;53.140;6.498;2023-01-24T06:29:39;23.30;;;12.02;;
52878;SDS011;38747;53.140;6.498;2023-01-24T06:35:17;22.40;;;11.10;;
52878;SDS011;38747;53.140;6.498;2023-01-24T06:38:01;21.85;;;10.80;;
52878;SDS011;38747;53.140;6.498;2023-01-24T06:40:26;19.58;;;9.98;;
52878;SDS011;38747;53.140;6.498;2023-01-24T06:42:53;22.65;;;10.20;;
52878;SDS011;38747;53.140;6.498;2023-01-24T06:45:19;21.13;;;9.87;;
52878;SDS011;38747;53.140;6.498;2023-01-24T06:47:45;19.52;;;9.93;;
52878;SDS011;38747;53.140;6.498;2023-01-24T06:50:16;20.40;;;10.30;;
52878;SDS011;38747;53.140;6.498;2023-01-24T06:52:47;23.50;;;10.75;;
52878;SDS011;38747;53.140;6.498;2023-01-24T06:55:14;20.30;;;9.98;;
52878;SDS011;38747;53.140;6.498;2023-01-24T06:57:40;20.73;;;10.27;;
52878;SDS011;38747;53.140;6.498;2023-01-24T07:00:06;20.10;;;9.57;;
52878;SDS011;38747;53.140;6.498;2023-01-24T07:02:33;20.13;;;10.05;;
52878;SDS011;38747;53.140;6.498;2023-01-24T07:04:58;19.43;;;9.93;;
52878;SDS011;38747;53.140;6.498;2023-01-24T07:07:24;18.40;;;9.80;;
52878;SDS011;38747;53.140;6.498;2023-01-24T07:09:50;20.20;;;10.57;;
52878;SDS011;38747;53.140;6.498;2023-01-24T07:12:15;22.20;;;10.97;;
52878;SDS011;38747;53.140;6.498;2023-01-24T07:14:41;20.35;;;10.88;;
52878;SDS011;38747;53.140;6.498;2023-01-24T07:17:07;23.38;;;12.00;;
52878;SDS011;38747;53.140;6.498;2023-01-24T07:19:33;24.27;;;12.37;;
52878;SDS011;38747;53.140;6.498;2023-01-24T07:21:59;21.77;;;12.02;;
52878;SDS011;38747;53.140;6.498;2023-01-24T07:24:25;23.10;;;11.80;;
52878;SDS011;38747;53.140;6.498;2023-01-24T07:26:55;24.40;;;12.10;;
52878;SDS011;38747;53.140;6.498;2023-01-24T07:29:22;25.67;;;12.75;;
52878;SDS011;38747;53.140;6.498;2023-01-24T07:31:48;23.42;;;11.57;;
52878;SDS011;38747;53.140;6.498;2023-01-24T07:34:14;21.42;;;11.55;;
52878;SDS011;38747;53.140;6.498;2023-01-24T07:36:41;21.95;;;11.52;;
52878;SDS011;38747;53.140;6.498;2023-01-24T07:39:08;22.10;;;11.30;;
52878;SDS011;38747;53.140;6.498;2023-01-24T07:41:36;21.45;;;11.70;;
52878;SDS011;38747;53.140;6.498;2023-01-24T07:44:03;22.23;;;11.10;;
52878;SDS011;38747;53.140;6.498;2023-01-24T07:46:31;19.02;;;10.05;;
52878;SDS011;38747;53.140;6.498;2023-01-24T07:48:58;22.90;;;10.87;;
52878;SDS011;38747;53.140;6.498;2023-01-24T07:51:24;20.88;;;11.23;;
52878;SDS011;38747;53.140;6.498;2023-01-24T07:53:50;21.45;;;11.48;;
52878;SDS011;38747;53.140;6.498;2023-01-24T07:56:15;19.13;;;10.53;;
52878;SDS011;38747;53.140;6.498;2023-01-24T07:58:42;19.08;;;10.10;;
52878;SDS011;38747;53.140;6.498;2023-01-24T08:01:07;19.15;;;10.57;;
52878;SDS011;38747;53.140;6.498;2023-01-24T08:03:33;21.67;;;10.73;;
52878;SDS011;38747;53.140;6.498;2023-01-24T08:05:59;19.83;;;10.73;;
52878;SDS011;38747;53.140;6.498;2023-01-24T08:08:24;18.77;;;10.80;;
52878;SDS011;38747;53.140;6.498;2023-01-24T08:10:50;18.20;;;9.80;;
52878;SDS011;38747;53.140;6.498;2023-01-24T08:13:16;21.20;;;9.80;;
52878;SDS011;38747;53.140;6.498;2023-01-24T08:15:41;18.90;;;10.43;;
52878;SDS011;38747;53.140;6.498;2023-01-24T08:18:07;19.70;;;10.43;;
52878;SDS011;38747;53.140;6.498;2023-01-24T08:20:33;18.63;;;9.88;;
52878;SDS011;38747;53.140;6.498;2023-01-24T08:22:58;18.93;;;9.33;;
52878;SDS011;38747;53.140;6.498;2023-01-24T08:25:25;18.87;;;10.13;;
52878;SDS011;38747;53.140;6.498;2023-01-24T08:27:51;17.67;;;9.38;;
52878;SDS011;38747;53.140;6.498;2023-01-24T08:30:18;18.33;;;9.77;;
52878;SDS011;38747;53.140;6.498;2023-01-24T08:32:44;18.83;;;10.20;;
52878;SDS011;38747;53.140;6.498;2023-01-24T08:35:10;19.40;;;10.03;;
52878;SDS011;38747;53.140;6.498;2023-01-24T08:37:35;20.03;;;10.80;;
52878;SDS011;38747;53.140;6.498;2023-01-24T08:40:01;20.57;;;10.37;;
52878;SDS011;38747;53.140;6.498;2023-01-24T08:42:27;19.03;;;10.23;;
52878;SDS011;38747;53.140;6.498;2023-01-24T08:44:52;19.80;;;11.30;;
52878;SDS011;38747;53.140;6.498;2023-01-24T08:47:18;19.20;;;10.47;;
52878;SDS011;38747;53.140;6.498;2023-01-24T08:49:44;18.93;;;11.00;;
52878;SDS011;38747;53.140;6.498;2023-01-24T08:52:09;21.60;;;11.27;;
52878;SDS011;38747;53.140;6.498;2023-01-24T08:54:35;19.83;;;10.17;;
52878;SDS011;38747;53.140;6.498;2023-01-24T08:57:01;20.00;;;11.40;;
52878;SDS011;38747;53.140;6.498;2023-01-24T08:59:28;20.05;;;11.40;;
52878;SDS011;38747;53.140;6.498;2023-01-24T09:01:54;20.10;;;11.07;;
52878;SDS011;38747;53.140;6.498;2023-01-24T09:04:19;21.23;;;11.30;;
52878;SDS011;38747;53.140;6.498;2023-01-24T09:06:45;19.53;;;10.93;;
52878;SDS011;38747;53.140;6.498;2023-01-24T09:09:11;20.83;;;11.23;;
52878;SDS011;38747;53.140;6.498;2023-01-24T09:11:37;19.37;;;11.17;;
52878;SDS011;38747;53.140;6.498;2023-01-24T09:14:02;19.20;;;11.13;;
52878;SDS011;38747;53.140;6.498;2023-01-24T09:16:28;20.57;;;11.57;;
52878;SDS011;38747;53.140;6.498;2023-01-24T09:18:54;22.63;;;11.45;;
52878;SDS011;38747;53.140;6.498;2023-01-24T09:21:20;19.92;;;10.88;;
52878;SDS011;38747;53.140;6.498;2023-01-24T09:23:46;20.07;;;10.47;;
52878;SDS011;38747;53.140;6.498;2023-01-24T09:26:12;20.90;;;11.77;;
52878;SDS011;38747;53.140;6.498;2023-01-24T09:28:37;21.97;;;11.60;;
52878;SDS011;38747;53.140;6.498;2023-01-24T09:31:06;22.38;;;12.30;;
52878;SDS011;38747;53.140;6.498;2023-01-24T09:33:33;21.85;;;11.98;;
52878;SDS011;38747;53.140;6.498;2023-01-24T09:35:59;20.93;;;11.87;;
52878;SDS011;38747;53.140;6.498;2023-01-24T09:38:27;21.80;;;11.70;;
52878;SDS011;38747;53.140;6.498;2023-01-24T09:43:45;19.77;;;10.23;;
52878;SDS011;38747;53.140;6.498;2023-01-24T09:46:23;19.15;;;10.25;;
52878;SDS011;38747;53.140;6.498;2023-01-24T09:49:09;18.83;;;10.17;;
52878;SDS011;38747;53.140;6.498;2023-01-24T09:51:56;19.88;;;10.23;;
52878;SDS011;38747;53.140;6.498;2023-01-24T09:54:26;18.27;;;10.47;;
52878;SDS011;38747;53.140;6.498;2023-01-24T09:57:11;18.07;;;9.83;;
52878;SDS011;38747;53.140;6.498;2023-01-24T09:59:51;17.60;;;9.75;;
52878;SDS011;38747;53.140;6.498;2023-01-24T10:02:21;17.02;;;10.25;;
52878;SDS011;38747;53.140;6.498;2023-01-24T10:04:49;18.60;;;10.07;;
52878;SDS011;38747;53.140;6.498;2023-01-24T10:07:20;17.00;;;9.70;;
52878;SDS011;38747;53.140;6.498;2023-01-24T10:12:35;18.98;;;9.38;;
52878;SDS011;38747;53.140;6.498;2023-01-24T10:20:36;16.47;;;8.70;;
52878;SDS011;38747;53.140;6.498;2023-01-24T10:23:15;17.27;;;8.98;;
52878;SDS011;38747;53.140;6.498;2023-01-24T10:28:39;17.60;;;9.23;;
52878;SDS011;38747;53.140;6.498;2023-01-24T10:31:14;16.25;;;8.40;;
52878;SDS011;38747;53.140;6.498;2023-01-24T10:33:45;19.30;;;9.90;;
52878;SDS011;38747;53.140;6.498;2023-01-24T10:38:55;17.75;;;9.30;;
52878;SDS011;38747;53.140;6.498;2023-01-24T10:41:21;18.13;;;9.53;;
52878;SDS011;38747;53.140;6.498;2023-01-24T10:43:53;17.05;;;10.18;;
52878;SDS011;38747;53.140;6.498;2023-01-24T10:49:23;17.33;;;9.32;;
52878;SDS011;38747;53.140;6.498;2023-01-24T10:52:06;18.33;;;8.93;;
52878;SDS011;38747;53.140;6.498;2023-01-24T10:54:51;17.03;;;9.10;;
52878;SDS011;38747;53.140;6.498;2023-01-24T11:02:49;18.80;;;9.93;;
52878;SDS011;38747;53.140;6.498;2023-01-24T11:05:16;18.23;;;10.20;;
52878;SDS011;38747;53.140;6.498;2023-01-24T11:07:47;18.20;;;9.73;;
52878;SDS011;38747;53.140;6.498;2023-01-24T11:10:23;16.48;;;8.80;;
52878;SDS011;38747;53.140;6.498;2023-01-24T11:12:52;17.77;;;8.82;;
52878;SDS011;38747;53.140;6.498;2023-01-24T11:15:30;17.20;;;8.80;;
52878;SDS011;38747;53.140;6.498;2023-01-24T11:18:07;14.38;;;8.43;;
52878;SDS011;38747;53.140;6.498;2023-01-24T11:20:40;16.73;;;9.07;;
52878;SDS011;38747;53.140;6.498;2023-01-24T11:28:41;15.80;;;8.10;;
52878;SDS011;38747;53.140;6.498;2023-01-24T11:31:22;16.48;;;8.30;;
52878;SDS011;38747;53.140;6.498;2023-01-24T11:41:54;17.35;;;8.55;;
52878;SDS011;38747;53.140;6.498;2023-01-24T11:44:36;17.57;;;9.00;;
52878;SDS011;38747;53.140;6.498;2023-01-24T11:47:36;19.70;;;9.18;;
52878;SDS011;38747;53.140;6.498;2023-01-24T11:55:47;16.17;;;8.80;;
52878;SDS011;38747;53.140;6.498;2023-01-24T12:01:14;17.83;;;9.65;;
52878;SDS011;38747;53.140;6.498;2023-01-24T12:06:41;18.60;;;10.00;;
52878;SDS011;38747;53.140;6.498;2023-01-24T12:09:19;19.53;;;10.20;;
52878;SDS011;38747;53.140;6.498;2023-01-24T12:14:43;18.20;;;9.32;;
52878;SDS011;38747;53.140;6.498;2023-01-24T12:22:40;18.63;;;10.20;;
52878;SDS011;38747;53.140;6.498;2023-01-24T12:27:41;19.17;;;10.07;;
52878;SDS011;38747;53.140;6.498;2023-01-24T12:36:00;18.77;;;10.03;;
52878;SDS011;38747;53.140;6.498;2023-01-24T12:38:34;19.25;;;10.35;;
52878;SDS011;38747;53.140;6.498;2023-01-24T12:41:20;19.90;;;10.23;;
52878;SDS011;38747;53.140;6.498;2023-01-24T12:43:58;18.67;;;9.90;;
52878;SDS011;38747;53.140;6.498;2023-01-24T12:46:37;20.92;;;11.27;;
52878;SDS011;38747;53.140;6.498;2023-01-24T12:52:01;16.42;;;9.15;;
52878;SDS011;38747;53.140;6.498;2023-01-24T12:54:36;17.63;;;9.65;;
52878;SDS011;38747;53.140;6.498;2023-01-24T12:59:55;18.05;;;9.68;;
52878;SDS011;38747;53.140;6.498;2023-01-24T13:13:13;19.57;;;10.27;;
52878;SDS011;38747;53.140;6.498;2023-01-24T13:29:50;19.17;;;9.75;;
52878;SDS011;38747;53.140;6.498;2023-01-24T13:32:39;18.98;;;10.18;;
52878;SDS011;38747;53.140;6.498;2023-01-24T13:38:04;18.23;;;10.00;;
52878;SDS011;38747;53.140;6.498;2023-01-24T13:40:40;21.67;;;10.32;;
52878;SDS011;38747;53.140;6.498;2023-01-24T13:55:01;19.80;;;10.50;;
52878;SDS011;38747;53.140;6.498;2023-01-24T13:57:33;21.88;;;10.93;;
52878;SDS011;38747;53.140;6.498;2023-01-24T14:08:01;21.70;;;11.98;;
52878;SDS011;38747;53.140;6.498;2023-01-24T14:13:04;23.95;;;12.73;;
52878;SDS011;38747;53.140;6.498;2023-01-24T14:15:50;20.00;;;10.73;;
52878;SDS011;38747;53.140;6.498;2023-01-24T14:21:15;19.55;;;9.25;;
52878;SDS011;38747;53.140;6.498;2023-01-24T14:23:48;19.67;;;10.13;;
52878;SDS011;38747;53.140;6.498;2023-01-24T14:26:17;20.00;;;10.10;;
52878;SDS011;38747;53.140;6.498;2023-01-24T14:28:47;20.77;;;10.17;;
52878;SDS011;38747;53.140;6.498;2023-01-24T14:31:24;20.20;;;10.35;;
52878;SDS011;38747;53.140;6.498;2023-01-24T14:34:07;21.83;;;11.07;;
52878;SDS011;38747;53.140;6.498;2023-01-24T14:36:37;20.88;;;10.25;;
52878;SDS011;38747;53.140;6.498;2023-01-24T14:39:22;21.60;;;11.05;;
52878;SDS011;38747;53.140;6.498;2023-01-24T14:41:50;19.07;;;10.17;;
52878;SDS011;38747;53.140;6.498;2023-01-24T14:44:26;20.98;;;10.75;;
52878;SDS011;38747;53.140;6.498;2023-01-24T14:46:58;20.95;;;10.52;;
52878;SDS011;38747;53.140;6.498;2023-01-24T14:49:26;21.77;;;10.35;;
52878;SDS011;38747;53.140;6.498;2023-01-24T14:51:55;21.20;;;11.07;;
52878;SDS011;38747;53.140;6.498;2023-01-24T14:54:21;21.23;;;11.10;;
52878;SDS011;38747;53.140;6.498;2023-01-24T14:56:48;20.83;;;10.48;;
52878;SDS011;38747;53.140;6.498;2023-01-24T14:59:16;19.63;;;10.90;;
52878;SDS011;38747;53.140;6.498;2023-01-24T15:01:42;21.27;;;10.93;;
52878;SDS011;38747;53.140;6.498;2023-01-24T15:07:02;21.45;;;10.35;;
52878;SDS011;38747;53.140;6.498;2023-01-24T15:09:39;23.67;;;11.20;;
52878;SDS011;38747;53.140;6.498;2023-01-24T15:14:51;22.45;;;10.80;;
52878;SDS011;38747;53.140;6.498;2023-01-24T15:17:20;21.45;;;10.95;;
52878;SDS011;38747;53.140;6.498;2023-01-24T15:19:48;21.05;;;10.35;;
52878;SDS011;38747;53.140;6.498;2023-01-24T15:22:18;21.48;;;11.05;;
52878;SDS011;38747;53.140;6.498;2023-01-24T15:24:52;21.27;;;11.17;;
52878;SDS011;38747;53.140;6.498;2023-01-24T15:35:38;23.52;;;10.57;;
52878;SDS011;38747;53.140;6.498;2023-01-24T15:46:28;21.27;;;10.27;;
52878;SDS011;38747;53.140;6.498;2023-01-24T15:49:38;20.95;;;10.75;;
52878;SDS011;38747;53.140;6.498;2023-01-24T15:54:34;19.17;;;9.60;;
52878;SDS011;38747;53.140;6.498;2023-01-24T15:57:02;18.45;;;9.45;;
52878;SDS011;38747;53.140;6.498;2023-01-24T15:59:29;18.90;;;10.00;;
52878;SDS011;38747;53.140;6.498;2023-01-24T16:01:56;20.33;;;10.20;;
52878;SDS011;38747;53.140;6.498;2023-01-24T16:04:22;17.70;;;9.40;;
52878;SDS011;38747;53.140;6.498;2023-01-24T16:06:48;18.60;;;9.57;;
52878;SDS011;38747;53.140;6.498;2023-01-24T16:09:14;17.80;;;9.40;;
52878;SDS011;38747;53.140;6.498;2023-01-24T16:11:41;18.30;;;9.50;;
52878;SDS011;38747;53.140;6.498;2023-01-24T16:14:17;18.48;;;9.60;;
52878;SDS011;38747;53.140;6.498;2023-01-24T16:16:46;18.90;;;9.38;;
52878;SDS011;38747;53.140;6.498;2023-01-24T16:19:14;18.30;;;9.55;;
52878;SDS011;38747;53.140;6.498;2023-01-24T16:21:42;21.00;;;10.43;;
52878;SDS011;38747;53.140;6.498;2023-01-24T16:24:08;17.90;;;9.43;;
52878;SDS011;38747;53.140;6.498;2023-01-24T16:26:33;19.40;;;9.83;;
52878;SDS011;38747;53.140;6.498;2023-01-24T16:28:59;17.97;;;9.50;;
52878;SDS011;38747;53.140;6.498;2023-01-24T16:31:25;22.27;;;12.33;;
52878;SDS011;38747;53.140;6.498;2023-01-24T16:33:50;22.17;;;11.83;;
52878;SDS011;38747;53.140;6.498;2023-01-24T16:36:16;20.07;;;9.83;;
52878;SDS011;38747;53.140;6.498;2023-01-24T16:38:42;20.25;;;9.10;;
52878;SDS011;38747;53.140;6.498;2023-01-24T16:41:09;19.73;;;10.18;;
52878;SDS011;38747;53.140;6.498;2023-01-24T16:43:35;19.53;;;10.10;;
52878;SDS011;38747;53.140;6.498;2023-01-24T16:46:01;20.42;;;10.15;;
52878;SDS011;38747;53.140;6.498;2023-01-24T16:48:27;21.17;;;10.70;;
52878;SDS011;38747;53.140;6.498;2023-01-24T16:50:56;19.57;;;10.00;;
52878;SDS011;38747;53.140;6.498;2023-01-24T16:53:21;20.88;;;10.13;;
52878;SDS011;38747;53.140;6.498;2023-01-24T16:55:54;20.60;;;9.60;;
52878;SDS011;38747;53.140;6.498;2023-01-24T16:58:21;19.80;;;10.68;;
52878;SDS011;38747;53.140;6.498;2023-01-24T17:00:47;20.03;;;10.90;;
52878;SDS011;38747;53.140;6.498;2023-01-24T17:03:12;20.00;;;9.57;;
52878;SDS011;38747;53.140;6.498;2023-01-24T17:05:39;19.77;;;9.70;;
52878;SDS011;38747;53.140;6.498;2023-01-24T17:08:05;18.80;;;9.87;;
52878;SDS011;38747;53.140;6.498;2023-01-24T17:10:31;20.35;;;10.23;;
52878;SDS011;38747;53.140;6.498;2023-01-24T17:12:56;17.93;;;9.80;;
52878;SDS011;38747;53.140;6.498;2023-01-24T17:15:22;21.55;;;12.70;;
52878;SDS011;38747;53.140;6.498;2023-01-24T17:17:48;20.80;;;10.00;;
52878;SDS011;38747;53.140;6.498;2023-01-24T17:20:13;18.50;;;10.10;;
52878;SDS011;38747;53.140;6.498;2023-01-24T17:22:39;17.97;;;9.47;;
52878;SDS011;38747;53.140;6.498;2023-01-24T17:25:05;20.42;;;10.98;;
52878;SDS011;38747;53.140;6.498;2023-01-24T17:27:31;20.70;;;10.35;;